City Of Port Allen — WDD9053 — position and weather

sailwx.info

Track history (hours):
 
Tides and Currents Weather Stations Pressure Air Temp Water Temp Dewpoint Dewpoint Depression Visibility Wind Speed Wind Dir Waves Ship Positions

City Of Port Allen

Owner: Ingram Barge Company LLC, Nashville, TN. More information available from US FCC via Universal Licensing System and Coast Guard Vessel Documentation Center.

Last reported at 2018-Jul-16 05:47 UTC. Time now 2018-Jul-16 14:44 UTC.
Position N 29°53' W 092°25'.

Length 23 m; draft 2.3 m.

Type: Towing. MMSI: 367306270.

Date/timePositionNaut miles runAvg speedWind from/ knotsBaromVisibWave heightAir tempDewpointWater temp
2018-Jul-16 05:47N 29°53' W 092°25'1 3.4
2018-Jul-16 05:25N 29°53' W 092°23'2 3.4
2018-Jul-16 04:54N 29°52' W 092°22'1 3.1
2018-Jul-16 04:30N 29°51' W 092°21'1 2.1
2018-Jul-16 04:00N 29°50' W 092°20'2 3.3
2018-Jul-16 03:30N 29°50' W 092°18'1 2.6
2018-Jul-16 03:00N 29°49' W 092°17'2 3.0
2018-Jul-16 02:30N 29°48' W 092°15'2 3.8
2018-Jul-16 02:00N 29°48' W 092°13'2 3.9
2018-Jul-16 01:30N 29°47' W 092°11'2 3.5
2018-Jul-16 01:00N 29°47' W 092°09'2 4.0
2018-Jul-16 00:30N 29°47' W 092°07'2 3.9
2018-Jul-16 00:00N 29°48' W 092°05'2 3.8
2018-Jul-15 23:30N 29°49' W 092°03'2 4.0
2018-Jul-15 23:00N 29°50' W 092°01'2 4.1
2018-Jul-15 22:30N 29°50' W 091°59'2 3.7
2018-Jul-15 22:00N 29°51' W 091°56'8 0.6
2018-Jul-15 08:43N 29°47' W 091°49'1 3.4
2018-Jul-15 08:18N 29°48' W 091°49'1 3.5
2018-Jul-15 08:00N 29°49' W 091°50'2 2.4
2018-Jul-15 07:21N 29°51' W 091°51'2 4.6
2018-Jul-15 07:00N 29°51' W 091°53'2 4.6
2018-Jul-15 06:30N 29°51' W 091°55'2 4.1
2018-Jul-15 06:00N 29°50' W 091°58'2 4.0
2018-Jul-15 05:30N 29°50' W 091°60'2 4.3
2018-Jul-15 05:00N 29°49' W 092°02'2 3.8
2018-Jul-15 04:30N 29°48' W 092°04'2 3.6
2018-Jul-15 04:00N 29°48' W 092°06'2 3.6
2018-Jul-15 03:30N 29°47' W 092°08'2 3.8
2018-Jul-15 03:00N 29°47' W 092°10'2 4.2
2018-Jul-15 02:30N 29°47' W 092°12'2 3.4
2018-Jul-15 02:00N 29°48' W 092°14'1 2.7
2018-Jul-15 01:30N 29°48' W 092°16'2 3.5
2018-Jul-15 01:00N 29°49' W 092°17'2 3.6
2018-Jul-15 00:30N 29°50' W 092°19'2 4.0
2018-Jul-15 00:00N 29°51' W 092°21'3 3.7
2018-Jul-14 23:13N 29°53' W 092°24'36 3.6
2018-Jul-14 13:14N 29°56' W 093°05'1 2.7
2018-Jul-14 12:53N 29°56' W 093°06'1 2.6
2018-Jul-14 12:30N 29°56' W 093°07'1 2.7
2018-Jul-14 12:00N 29°56' W 093°09'1 2.5
2018-Jul-14 11:30N 29°57' W 093°10'1 2.6
2018-Jul-14 11:00N 29°58' W 093°11'1 2.6
2018-Jul-14 10:30N 29°59' W 093°12'1 2.5
2018-Jul-14 10:00N 29°59' W 093°13'2 3.0
2018-Jul-14 09:30N 30°01' W 093°14'1 2.7
2018-Jul-14 09:00N 30°02' W 093°15'1 2.9
2018-Jul-14 08:30N 30°03' W 093°16'1 2.3
2018-Jul-14 08:00N 30°04' W 093°16'1 2.2
2018-Jul-14 07:30N 30°05' W 093°17'1 1.5
2018-Jul-14 07:00N 30°05' W 093°18'0 0.6
2018-Jul-14 06:30N 30°06' W 093°18'0 0.8
2018-Jul-14 06:00N 30°06' W 093°18'1 1.0
2018-Jul-14 05:25N 30°06' W 093°19'0 0.1
2018-Jul-14 05:00N 30°06' W 093°19'0 0.0
2018-Jul-14 04:30N 30°06' W 093°19'0 0.0
2018-Jul-14 04:00N 30°06' W 093°19'0 0.0
2018-Jul-14 03:30N 30°06' W 093°19'0 0.0
2018-Jul-14 03:00N 30°06' W 093°19'0 0.0
2018-Jul-14 02:30N 30°06' W 093°19'0 0.0
2018-Jul-14 02:00N 30°06' W 093°19'0 0.0
2018-Jul-14 01:30N 30°06' W 093°19'0 0.0
2018-Jul-14 01:00N 30°06' W 093°19'0 0.0
2018-Jul-14 00:30N 30°06' W 093°19'0 0.0
2018-Jul-14 00:00N 30°06' W 093°19'0 0.0
2018-Jul-13 23:30N 30°06' W 093°19'0 0.0
2018-Jul-13 23:00N 30°06' W 093°19'0 0.0
2018-Jul-13 22:30N 30°06' W 093°19'0 0.0
2018-Jul-13 22:00N 30°06' W 093°19'0 0.0
2018-Jul-13 21:30N 30°06' W 093°19'0 0.0
2018-Jul-13 21:00N 30°06' W 093°19'0 0.0
2018-Jul-13 20:30N 30°06' W 093°19'0 0.0
2018-Jul-13 20:00N 30°06' W 093°19'0 0.0
2018-Jul-13 19:30N 30°06' W 093°19'0 0.0
2018-Jul-13 19:00N 30°06' W 093°19'0 0.0
2018-Jul-13 18:30N 30°06' W 093°19'0 0.0
2018-Jul-13 18:00N 30°06' W 093°19'0 0.0
2018-Jul-13 17:30N 30°06' W 093°19'0 0.0
2018-Jul-13 17:00N 30°06' W 093°19'0 0.0
2018-Jul-13 16:30N 30°06' W 093°19'0 0.0
2018-Jul-13 16:00N 30°06' W 093°19'0 0.0
2018-Jul-13 15:30N 30°06' W 093°19'0 0.0
2018-Jul-13 15:00N 30°06' W 093°19'0 0.0
2018-Jul-13 14:00N 30°06' W 093°19'0 0.0
2018-Jul-13 13:30N 30°06' W 093°19'0 0.0
2018-Jul-13 13:00N 30°06' W 093°19'0 0.0
2018-Jul-13 12:30N 30°06' W 093°19'0 0.0
2018-Jul-13 12:00N 30°06' W 093°19'0 0.0
2018-Jul-13 11:30N 30°06' W 093°19'0 0.0
2018-Jul-13 11:00N 30°06' W 093°19'0 0.0
2018-Jul-13 10:30N 30°06' W 093°19'0 0.0
2018-Jul-13 10:00N 30°06' W 093°19'0 0.0
2018-Jul-13 09:29N 30°06' W 093°19'0 0.0
2018-Jul-13 09:00N 30°06' W 093°19'0 0.0
2018-Jul-13 08:30N 30°06' W 093°19'0 0.0
2018-Jul-13 08:00N 30°06' W 093°19'0 0.0
2018-Jul-13 07:30N 30°06' W 093°19'0 0.0
2018-Jul-13 07:01N 30°06' W 093°19'0 0.0
2018-Jul-13 06:30N 30°06' W 093°19'0 0.0
2018-Jul-13 05:57N 30°06' W 093°19'0 0.0
2018-Jul-13 05:30N 30°06' W 093°19'0 0.0
2018-Jul-13 05:00N 30°06' W 093°19'0 0.0
2018-Jul-13 04:30N 30°06' W 093°19'0 0.0
2018-Jul-13 03:59N 30°06' W 093°19'0 0.0
2018-Jul-13 03:30N 30°06' W 093°19'0 0.0
2018-Jul-13 03:00N 30°06' W 093°19'0 0.0
2018-Jul-13 02:30N 30°06' W 093°19'0 0.0
2018-Jul-13 02:00N 30°06' W 093°19'0 0.0
2018-Jul-13 01:30N 30°06' W 093°19'0 0.0
2018-Jul-13 00:58N 30°06' W 093°19'0 0.0
2018-Jul-13 00:27N 30°06' W 093°19'0 0.0
2018-Jul-12 23:59N 30°06' W 093°19'0 0.0
2018-Jul-12 23:30N 30°06' W 093°19'0 0.0
2018-Jul-12 23:00N 30°06' W 093°19'0 0.0
2018-Jul-12 22:28N 30°06' W 093°19'0 0.0
2018-Jul-12 22:00N 30°06' W 093°19'0 0.0
2018-Jul-12 21:30N 30°06' W 093°19'0 0.0
2018-Jul-12 21:00N 30°06' W 093°19'0 0.0
2018-Jul-12 20:30N 30°06' W 093°19'0 0.0
2018-Jul-12 20:00N 30°06' W 093°19'0 0.0
2018-Jul-12 19:30N 30°06' W 093°19'0 0.0
2018-Jul-12 18:58N 30°06' W 093°19'0 0.0
2018-Jul-12 18:30N 30°06' W 093°19'0 0.0
2018-Jul-12 18:00N 30°06' W 093°19'0 0.0
2018-Jul-12 17:27N 30°06' W 093°19'0 0.0
2018-Jul-12 17:00N 30°06' W 093°19'0 0.0
2018-Jul-12 16:29N 30°06' W 093°19'0 0.0
2018-Jul-12 16:00N 30°06' W 093°19'0 0.0
2018-Jul-12 15:30N 30°06' W 093°19'0 0.0
2018-Jul-12 15:00N 30°06' W 093°19'0 0.0
2018-Jul-12 14:30N 30°06' W 093°19'0 0.0
2018-Jul-12 13:59N 30°06' W 093°19'0 0.0
2018-Jul-12 13:30N 30°06' W 093°19'0 0.0
2018-Jul-12 13:00N 30°06' W 093°19'0 0.0
2018-Jul-12 12:30N 30°06' W 093°19'0 0.0
2018-Jul-12 12:00N 30°06' W 093°19'0 0.0
2018-Jul-12 11:29N 30°06' W 093°19'0 0.0
2018-Jul-12 11:00N 30°06' W 093°19'0 0.0
2018-Jul-12 10:30N 30°06' W 093°19'0 0.0
2018-Jul-12 10:00N 30°06' W 093°19'0 0.0
2018-Jul-12 09:30N 30°06' W 093°19'0 0.0
2018-Jul-12 09:00N 30°06' W 093°19'0 0.0
2018-Jul-12 08:29N 30°06' W 093°19'0 0.0
2018-Jul-12 08:00N 30°06' W 093°19'0 0.0
2018-Jul-12 07:30N 30°06' W 093°19'0 0.0
2018-Jul-12 06:59N 30°06' W 093°19'0 0.0
2018-Jul-12 06:30N 30°06' W 093°19'0 0.0
2018-Jul-12 05:59N 30°06' W 093°19'0 0.0
2018-Jul-12 05:30N 30°06' W 093°19'0 0.0
2018-Jul-12 05:00N 30°06' W 093°19'0 0.0
2018-Jul-12 04:30N 30°06' W 093°19'0 0.0
2018-Jul-12 04:00N 30°06' W 093°19'0 0.0
2018-Jul-12 03:30N 30°06' W 093°19'0 0.0
2018-Jul-12 03:00N 30°06' W 093°19'0 0.0
2018-Jul-12 02:30N 30°06' W 093°19'0 0.0
2018-Jul-12 02:00N 30°06' W 093°19'0 0.0
2018-Jul-12 01:30N 30°06' W 093°19'0 0.0
2018-Jul-12 01:00N 30°06' W 093°19'0 0.0
2018-Jul-12 00:29N 30°06' W 093°19'0 0.0
2018-Jul-12 00:00N 30°06' W 093°19'0 0.0
2018-Jul-11 23:30N 30°06' W 093°19'0 0.0
2018-Jul-11 22:59N 30°06' W 093°19'0 0.0
2018-Jul-11 22:30N 30°06' W 093°19'0 0.0
2018-Jul-11 22:00N 30°06' W 093°19'0 0.0
2018-Jul-11 21:30N 30°06' W 093°19'0 0.0
2018-Jul-11 21:00N 30°06' W 093°19'0 0.0
2018-Jul-11 20:29N 30°06' W 093°19'0 0.0
2018-Jul-11 20:00N 30°06' W 093°19'0 0.0
2018-Jul-11 19:30N 30°06' W 093°19'0 0.0
2018-Jul-11 19:00N 30°06' W 093°19'0 0.0
2018-Jul-11 18:30N 30°06' W 093°19'0 0.0
2018-Jul-11 18:00N 30°06' W 093°19'0 0.0
2018-Jul-11 17:30N 30°06' W 093°19'0 0.0
2018-Jul-11 17:00N 30°06' W 093°19'0 0.0
2018-Jul-11 16:30N 30°06' W 093°19'0 0.0
2018-Jul-11 16:00N 30°06' W 093°19'0 0.0
2018-Jul-11 15:30N 30°06' W 093°19'0 0.0
2018-Jul-11 15:00N 30°06' W 093°19'0 0.0
2018-Jul-11 14:30N 30°06' W 093°19'0 0.0
2018-Jul-11 14:00N 30°06' W 093°19'0 0.0
2018-Jul-11 13:30N 30°06' W 093°19'0 0.0
2018-Jul-11 13:00N 30°06' W 093°19'0 0.0
2018-Jul-11 12:30N 30°06' W 093°19'0 0.0
2018-Jul-11 12:00N 30°06' W 093°19'0 0.0
2018-Jul-11 11:30N 30°06' W 093°19'0 0.0
2018-Jul-11 11:00N 30°06' W 093°19'0 0.0
2018-Jul-11 10:30N 30°06' W 093°19'0 0.0
2018-Jul-11 10:00N 30°06' W 093°19'0 0.3
2018-Jul-11 09:30N 30°06' W 093°19'1 1.3
2018-Jul-11 09:00N 30°06' W 093°20'0 0.1
2018-Jul-11 08:31N 30°06' W 093°20'0 0.2
2018-Jul-11 08:00N 30°06' W 093°20'0 0.1
2018-Jul-11 07:30N 30°06' W 093°20'0 0.1
2018-Jul-11 06:59N 30°06' W 093°20'0 0.0
2018-Jul-11 06:30N 30°06' W 093°20'0 0.0
2018-Jul-11 06:00N 30°06' W 093°20'0 0.0
2018-Jul-11 05:30N 30°06' W 093°20'0 0.0
2018-Jul-11 05:00N 30°06' W 093°20'0 0.1
2018-Jul-11 04:30N 30°06' W 093°20'0 0.0
2018-Jul-11 04:00N 30°06' W 093°20'0 0.1
2018-Jul-11 03:30N 30°06' W 093°20'1 1.3
2018-Jul-11 03:00N 30°05' W 093°20'2 3.3
2018-Jul-11 02:30N 30°04' W 093°21'0 0.0
2018-Jul-11 02:00N 30°04' W 093°21'0 0.2
2018-Jul-11 01:30N 30°04' W 093°21'2 5.0
2018-Jul-11 01:00N 30°03' W 093°18'1 1.7
2018-Jul-11 00:30N 30°04' W 093°18'1 1.7
2018-Jul-11 00:00N 30°05' W 093°18'1 1.7
2018-Jul-10 23:30N 30°06' W 093°18'1 1.0
2018-Jul-10 23:00N 30°06' W 093°18'1 0.1
2018-Jul-10 15:26N 30°06' W 093°17'0 0.1
2018-Jul-10 15:00N 30°06' W 093°17'0 0.0
2018-Jul-10 14:30N 30°06' W 093°17'0 0.0
2018-Jul-10 14:00N 30°06' W 093°17'0 0.0
2018-Jul-10 13:30N 30°06' W 093°17'0 0.0
2018-Jul-10 13:00N 30°06' W 093°17'0 0.0
2018-Jul-10 12:30N 30°06' W 093°17'0 0.0
2018-Jul-10 12:00N 30°06' W 093°17'0 0.0
2018-Jul-10 11:30N 30°06' W 093°17'0 0.0
2018-Jul-10 11:00N 30°06' W 093°17'0 0.0
2018-Jul-10 10:30N 30°06' W 093°17'0 0.0
2018-Jul-10 10:00N 30°06' W 093°17'0 0.0
2018-Jul-10 09:30N 30°06' W 093°17'0 0.0
2018-Jul-10 09:00N 30°06' W 093°17'0 0.0
2018-Jul-10 08:30N 30°06' W 093°17'0 0.0
2018-Jul-10 08:00N 30°06' W 093°17'0 0.0
2018-Jul-10 07:30N 30°06' W 093°17'0 0.0
2018-Jul-10 07:00N 30°06' W 093°17'0 0.0
2018-Jul-10 06:30N 30°06' W 093°17'0 0.0
2018-Jul-10 06:00N 30°06' W 093°17'0 0.0
2018-Jul-10 05:30N 30°06' W 093°17'0 0.0
2018-Jul-10 05:00N 30°06' W 093°17'0 0.0
2018-Jul-10 04:30N 30°06' W 093°17'0 0.0
2018-Jul-10 04:00N 30°06' W 093°17'0 0.0
2018-Jul-10 03:30N 30°06' W 093°17'0 0.0
2018-Jul-10 03:00N 30°06' W 093°17'0 0.0
2018-Jul-10 02:30N 30°06' W 093°17'0 0.0
2018-Jul-10 02:00N 30°06' W 093°17'0 0.0
2018-Jul-10 01:30N 30°06' W 093°17'0 0.0
2018-Jul-10 01:00N 30°06' W 093°17'0 0.0
2018-Jul-10 00:30N 30°06' W 093°17'0 0.0
2018-Jul-10 00:00N 30°06' W 093°17'0 0.0
2018-Jul-09 23:30N 30°06' W 093°17'0 0.0
2018-Jul-09 23:00N 30°06' W 093°17'0 0.0
2018-Jul-09 22:30N 30°06' W 093°17'0 0.0
2018-Jul-09 22:00N 30°06' W 093°17'0 0.0
2018-Jul-09 21:30N 30°06' W 093°17'0 0.0
2018-Jul-09 21:00N 30°06' W 093°17'0 0.0
2018-Jul-09 20:30N 30°06' W 093°17'0 0.0
2018-Jul-09 20:00N 30°06' W 093°17'0 0.0
2018-Jul-09 19:30N 30°06' W 093°17'1 1.4
2018-Jul-09 19:00N 30°07' W 093°18'1 1.5
2018-Jul-09 18:31N 30°06' W 093°19'0 0.1
2018-Jul-09 18:00N 30°06' W 093°19'0 0.1
2018-Jul-09 17:30N 30°06' W 093°19'0 0.0
2018-Jul-09 17:00N 30°06' W 093°19'0 0.0
2018-Jul-09 16:30N 30°06' W 093°19'0 0.0
2018-Jul-09 16:00N 30°06' W 093°19'0 0.0
2018-Jul-09 15:30N 30°06' W 093°19'0 0.0
2018-Jul-09 15:00N 30°06' W 093°19'0 0.1
2018-Jul-09 14:30N 30°06' W 093°19'0 0.1
2018-Jul-09 13:59N 30°06' W 093°19'0 0.0
2018-Jul-09 13:30N 30°06' W 093°19'0 0.1
2018-Jul-09 13:00N 30°06' W 093°19'0 0.0
2018-Jul-09 12:30N 30°06' W 093°19'0 0.0
2018-Jul-09 12:00N 30°06' W 093°19'0 0.1
2018-Jul-09 11:29N 30°06' W 093°19'0 1.0
2018-Jul-09 11:00N 30°06' W 093°18'1 1.0
2018-Jul-09 10:30N 30°05' W 093°18'0 0.9
2018-Jul-09 10:00N 30°05' W 093°17'1 1.0
2018-Jul-09 09:30N 30°05' W 093°17'1 2.3
2018-Jul-09 09:00N 30°04' W 093°16'0 0.0
2018-Jul-09 08:30N 30°04' W 093°16'0 0.0
2018-Jul-09 08:00N 30°04' W 093°16'0 0.0
2018-Jul-09 07:28N 30°04' W 093°16'0 0.0
2018-Jul-09 07:01N 30°04' W 093°16'0 0.0
2018-Jul-09 06:30N 30°04' W 093°16'0 0.1
2018-Jul-09 06:00N 30°04' W 093°16'0 0.5
2018-Jul-09 05:30N 30°04' W 093°16'1 2.0
2018-Jul-09 05:00N 30°03' W 093°16'1 2.0
2018-Jul-09 04:30N 30°02' W 093°15'1 2.0
2018-Jul-09 04:00N 30°01' W 093°14'1 2.3
2018-Jul-09 03:30N 30°00' W 093°14'1 1.2
2018-Jul-09 03:00N 29°60' W 093°13'0 0.1
2018-Jul-09 02:30N 29°60' W 093°13'0 0.2
2018-Jul-09 02:00N 29°60' W 093°13'0 0.0
2018-Jul-09 01:30N 29°60' W 093°13'0 0.0
2018-Jul-09 01:00N 29°60' W 093°13'0 0.0
2018-Jul-09 00:30N 29°60' W 093°13'0 0.0
2018-Jul-09 00:00N 29°60' W 093°13'0 0.0
2018-Jul-08 23:30N 29°60' W 093°13'0 0.0
2018-Jul-08 23:00N 29°60' W 093°13'0 0.0
2018-Jul-08 22:30N 29°60' W 093°13'0 0.0
2018-Jul-08 22:00N 29°60' W 093°13'0 0.0
2018-Jul-08 21:30N 29°60' W 093°13'0 0.0
2018-Jul-08 21:00N 29°60' W 093°13'0 0.3
2018-Jul-08 20:30N 29°60' W 093°13'0 0.0
2018-Jul-08 20:00N 29°60' W 093°13'0 0.1
2018-Jul-08 19:30N 29°60' W 093°13'0 0.0
2018-Jul-08 19:00N 29°60' W 093°13'0 0.0
2018-Jul-08 18:30N 29°60' W 093°13'0 0.0
2018-Jul-08 18:00N 29°60' W 093°13'0 0.2
2018-Jul-08 17:30N 29°60' W 093°13'0 0.5
2018-Jul-08 16:59N 29°59' W 093°13'1 1.8
2018-Jul-08 16:30N 29°59' W 093°12'2 3.1
2018-Jul-08 16:00N 29°58' W 093°11'1 1.7
2018-Jul-08 15:30N 29°57' W 093°10'0 0.1
2018-Jul-08 15:00N 29°57' W 093°10'0 0.8
2018-Jul-08 14:30N 29°57' W 093°10'0 0.0
2018-Jul-08 14:00N 29°57' W 093°10'0 0.0
2018-Jul-08 13:30N 29°57' W 093°10'0 0.0
2018-Jul-08 13:00N 29°57' W 093°10'0 0.1
2018-Jul-08 12:30N 29°57' W 093°10'0 0.0
2018-Jul-08 12:00N 29°57' W 093°10'0 0.0
2018-Jul-08 11:30N 29°57' W 093°10'0 0.0
2018-Jul-08 10:59N 29°57' W 093°10'0 0.0
2018-Jul-08 10:30N 29°57' W 093°10'0 0.0
2018-Jul-08 10:00N 29°57' W 093°10'0 0.0
2018-Jul-08 09:30N 29°57' W 093°10'0 0.0
2018-Jul-08 09:00N 29°57' W 093°10'0 0.0
2018-Jul-08 08:27N 29°57' W 093°10'0 0.0
2018-Jul-08 08:00N 29°57' W 093°10'0 0.0
2018-Jul-08 07:30N 29°57' W 093°10'0 0.0
2018-Jul-08 06:57N 29°57' W 093°10'0 0.1
2018-Jul-08 06:30N 29°57' W 093°10'0 0.0
2018-Jul-08 05:55N 29°57' W 093°10'0 0.0
2018-Jul-08 05:30N 29°57' W 093°10'0 0.3
2018-Jul-08 05:00N 29°56' W 093°10'0 1.0
2018-Jul-08 04:30N 29°56' W 093°09'2 3.0
2018-Jul-08 04:00N 29°56' W 093°08'1 1.2
2018-Jul-08 03:30N 29°56' W 093°07'2 3.0
2018-Jul-08 03:00N 29°56' W 093°05'1 2.5
2018-Jul-08 02:30N 29°56' W 093°04'0 0.0
2018-Jul-08 01:59N 29°56' W 093°04'0 0.0
2018-Jul-08 01:22N 29°56' W 093°04'0 0.0
2018-Jul-08 01:00N 29°56' W 093°04'0 0.0
2018-Jul-08 00:30N 29°56' W 093°04'0 0.0
2018-Jul-08 00:00N 29°56' W 093°04'0 0.0
2018-Jul-07 23:30N 29°56' W 093°04'0 0.0
2018-Jul-07 23:00N 29°56' W 093°04'0 0.0
2018-Jul-07 22:30N 29°56' W 093°04'0 0.0
2018-Jul-07 22:00N 29°56' W 093°04'0 0.0
2018-Jul-07 21:30N 29°56' W 093°04'0 0.0
2018-Jul-07 21:00N 29°56' W 093°04'0 0.0
2018-Jul-07 20:30N 29°56' W 093°04'0 0.0
2018-Jul-07 20:00N 29°56' W 093°04'0 0.0
2018-Jul-07 19:30N 29°56' W 093°04'0 0.0
2018-Jul-07 19:00N 29°56' W 093°04'0 0.0
2018-Jul-07 18:30N 29°56' W 093°04'0 0.0
2018-Jul-07 18:00N 29°56' W 093°04'0 0.0
2018-Jul-07 17:30N 29°56' W 093°04'0 0.0
2018-Jul-07 17:00N 29°56' W 093°04'0 0.1
2018-Jul-07 16:30N 29°56' W 093°04'1 2.2
2018-Jul-07 15:55N 29°56' W 093°02'2 0.5
2018-Jul-07 12:49N 29°56' W 093°00'0 0.0
2018-Jul-07 12:12N 29°56' W 093°00'0 0.0
2018-Jul-07 11:56N 29°56' W 093°00'0 0.0
2018-Jul-07 09:48N 29°56' W 093°00'0 0.0
2018-Jul-07 09:10N 29°56' W 093°00'0 0.0
2018-Jul-07 09:00N 29°56' W 093°00'0 0.2
2018-Jul-07 08:24N 29°56' W 093°00'0 0.0
2018-Jul-07 07:51N 29°56' W 093°00'0 0.0
2018-Jul-07 07:12N 29°56' W 093°00'0 0.0
2018-Jul-07 05:18N 29°56' W 093°00'0 0.0
2018-Jul-07 05:00N 29°56' W 093°00'0 0.0
2018-Jul-07 03:44N 29°56' W 093°00'0 0.0
2018-Jul-07 03:17N 29°56' W 093°00'0 0.1
2018-Jul-07 02:56N 29°56' W 093°00'0 0.0
2018-Jul-07 02:29N 29°56' W 093°00'7 0.4
2018-Jul-06 10:09N 29°57' W 092°52'0 0.2
2018-Jul-06 09:59N 29°57' W 092°52'0 0.3
2018-Jul-06 09:28N 29°57' W 092°52'1 2.1
2018-Jul-06 08:56N 29°58' W 092°51'  
Track history (hours):
 
Tides and Currents Weather Stations Pressure Air Temp Water Temp Dewpoint Dewpoint Depression Visibility Wind Speed Wind Dir Waves Ship Positions

City Of Port Allen

Owner: Ingram Barge Company LLC, Nashville, TN. More information available from US FCC via Universal Licensing System and Coast Guard Vessel Documentation Center.

Last reported at 2018-Jul-16 05:47 UTC. Time now 2018-Jul-16 14:44 UTC.
Position N 29°53' W 092°25'.

Length 23 m; draft 2.3 m.

Type: Towing. MMSI: 367306270.

Date/timePositionNaut miles runAvg speedWind from/ knotsBaromVisibWave heightAir tempDewpointWater temp
2018-Jul-16 05:47N 29°53' W 092°25'1 3.4
2018-Jul-16 05:25N 29°53' W 092°23'2 3.4
2018-Jul-16 04:54N 29°52' W 092°22'1 3.1
2018-Jul-16 04:30N 29°51' W 092°21'1 2.1
2018-Jul-16 04:00N 29°50' W 092°20'2 3.3
2018-Jul-16 03:30N 29°50' W 092°18'1 2.6
2018-Jul-16 03:00N 29°49' W 092°17'2 3.0
2018-Jul-16 02:30N 29°48' W 092°15'2 3.8
2018-Jul-16 02:00N 29°48' W 092°13'2 3.9
2018-Jul-16 01:30N 29°47' W 092°11'2 3.5
2018-Jul-16 01:00N 29°47' W 092°09'2 4.0
2018-Jul-16 00:30N 29°47' W 092°07'2 3.9
2018-Jul-16 00:00N 29°48' W 092°05'2 3.8
2018-Jul-15 23:30N 29°49' W 092°03'2 4.0
2018-Jul-15 23:00N 29°50' W 092°01'2 4.1
2018-Jul-15 22:30N 29°50' W 091°59'2 3.7
2018-Jul-15 22:00N 29°51' W 091°56'8 0.6
2018-Jul-15 08:43N 29°47' W 091°49'1 3.4
2018-Jul-15 08:18N 29°48' W 091°49'1 3.5
2018-Jul-15 08:00N 29°49' W 091°50'2 2.4
2018-Jul-15 07:21N 29°51' W 091°51'2 4.6
2018-Jul-15 07:00N 29°51' W 091°53'2 4.6
2018-Jul-15 06:30N 29°51' W 091°55'2 4.1
2018-Jul-15 06:00N 29°50' W 091°58'2 4.0
2018-Jul-15 05:30N 29°50' W 091°60'2 4.3
2018-Jul-15 05:00N 29°49' W 092°02'2 3.8
2018-Jul-15 04:30N 29°48' W 092°04'2 3.6
2018-Jul-15 04:00N 29°48' W 092°06'2 3.6
2018-Jul-15 03:30N 29°47' W 092°08'2 3.8
2018-Jul-15 03:00N 29°47' W 092°10'2 4.2
2018-Jul-15 02:30N 29°47' W 092°12'2 3.4
2018-Jul-15 02:00N 29°48' W 092°14'1 2.7
2018-Jul-15 01:30N 29°48' W 092°16'2 3.5
2018-Jul-15 01:00N 29°49' W 092°17'2 3.6
2018-Jul-15 00:30N 29°50' W 092°19'2 4.0
2018-Jul-15 00:00N 29°51' W 092°21'3 3.7
2018-Jul-14 23:13N 29°53' W 092°24'36 3.6
2018-Jul-14 13:14N 29°56' W 093°05'1 2.7
2018-Jul-14 12:53N 29°56' W 093°06'1 2.6
2018-Jul-14 12:30N 29°56' W 093°07'1 2.7
2018-Jul-14 12:00N 29°56' W 093°09'1 2.5
2018-Jul-14 11:30N 29°57' W 093°10'1 2.6
2018-Jul-14 11:00N 29°58' W 093°11'1 2.6
2018-Jul-14 10:30N 29°59' W 093°12'1 2.5
2018-Jul-14 10:00N 29°59' W 093°13'2 3.0
2018-Jul-14 09:30N 30°01' W 093°14'1 2.7
2018-Jul-14 09:00N 30°02' W 093°15'1 2.9
2018-Jul-14 08:30N 30°03' W 093°16'1 2.3
2018-Jul-14 08:00N 30°04' W 093°16'1 2.2
2018-Jul-14 07:30N 30°05' W 093°17'1 1.5
2018-Jul-14 07:00N 30°05' W 093°18'0 0.6
2018-Jul-14 06:30N 30°06' W 093°18'0 0.8
2018-Jul-14 06:00N 30°06' W 093°18'1 1.0
2018-Jul-14 05:25N 30°06' W 093°19'0 0.1
2018-Jul-14 05:00N 30°06' W 093°19'0 0.0
2018-Jul-14 04:30N 30°06' W 093°19'0 0.0
2018-Jul-14 04:00N 30°06' W 093°19'0 0.0
2018-Jul-14 03:30N 30°06' W 093°19'0 0.0
2018-Jul-14 03:00N 30°06' W 093°19'0 0.0
2018-Jul-14 02:30N 30°06' W 093°19'0 0.0
2018-Jul-14 02:00N 30°06' W 093°19'0 0.0
2018-Jul-14 01:30N 30°06' W 093°19'0 0.0
2018-Jul-14 01:00N 30°06' W 093°19'0 0.0
2018-Jul-14 00:30N 30°06' W 093°19'0 0.0
2018-Jul-14 00:00N 30°06' W 093°19'0 0.0
2018-Jul-13 23:30N 30°06' W 093°19'0 0.0
2018-Jul-13 23:00N 30°06' W 093°19'0 0.0
2018-Jul-13 22:30N 30°06' W 093°19'0 0.0
2018-Jul-13 22:00N 30°06' W 093°19'0 0.0
2018-Jul-13 21:30N 30°06' W 093°19'0 0.0
2018-Jul-13 21:00N 30°06' W 093°19'0 0.0
2018-Jul-13 20:30N 30°06' W 093°19'0 0.0
2018-Jul-13 20:00N 30°06' W 093°19'0 0.0
2018-Jul-13 19:30N 30°06' W 093°19'0 0.0
2018-Jul-13 19:00N 30°06' W 093°19'0 0.0
2018-Jul-13 18:30N 30°06' W 093°19'0 0.0
2018-Jul-13 18:00N 30°06' W 093°19'0 0.0
2018-Jul-13 17:30N 30°06' W 093°19'0 0.0
2018-Jul-13 17:00N 30°06' W 093°19'0 0.0
2018-Jul-13 16:30N 30°06' W 093°19'0 0.0
2018-Jul-13 16:00N 30°06' W 093°19'0 0.0
2018-Jul-13 15:30N 30°06' W 093°19'0 0.0
2018-Jul-13 15:00N 30°06' W 093°19'0 0.0
2018-Jul-13 14:00N 30°06' W 093°19'0 0.0
2018-Jul-13 13:30N 30°06' W 093°19'0 0.0
2018-Jul-13 13:00N 30°06' W 093°19'0 0.0
2018-Jul-13 12:30N 30°06' W 093°19'0 0.0
2018-Jul-13 12:00N 30°06' W 093°19'0 0.0
2018-Jul-13 11:30N 30°06' W 093°19'0 0.0
2018-Jul-13 11:00N 30°06' W 093°19'0 0.0
2018-Jul-13 10:30N 30°06' W 093°19'0 0.0
2018-Jul-13 10:00N 30°06' W 093°19'0 0.0
2018-Jul-13 09:29N 30°06' W 093°19'0 0.0
2018-Jul-13 09:00N 30°06' W 093°19'0 0.0
2018-Jul-13 08:30N 30°06' W 093°19'0 0.0
2018-Jul-13 08:00N 30°06' W 093°19'0 0.0
2018-Jul-13 07:30N 30°06' W 093°19'0 0.0
2018-Jul-13 07:01N 30°06' W 093°19'0 0.0
2018-Jul-13 06:30N 30°06' W 093°19'0 0.0
2018-Jul-13 05:57N 30°06' W 093°19'0 0.0
2018-Jul-13 05:30N 30°06' W 093°19'0 0.0
2018-Jul-13 05:00N 30°06' W 093°19'0 0.0
2018-Jul-13 04:30N 30°06' W 093°19'0 0.0
2018-Jul-13 03:59N 30°06' W 093°19'0 0.0
2018-Jul-13 03:30N 30°06' W 093°19'0 0.0
2018-Jul-13 03:00N 30°06' W 093°19'0 0.0
2018-Jul-13 02:30N 30°06' W 093°19'0 0.0
2018-Jul-13 02:00N 30°06' W 093°19'0 0.0
2018-Jul-13 01:30N 30°06' W 093°19'0 0.0
2018-Jul-13 00:58N 30°06' W 093°19'0 0.0
2018-Jul-13 00:27N 30°06' W 093°19'0 0.0
2018-Jul-12 23:59N 30°06' W 093°19'0 0.0
2018-Jul-12 23:30N 30°06' W 093°19'0 0.0
2018-Jul-12 23:00N 30°06' W 093°19'0 0.0
2018-Jul-12 22:28N 30°06' W 093°19'0 0.0
2018-Jul-12 22:00N 30°06' W 093°19'0 0.0
2018-Jul-12 21:30N 30°06' W 093°19'0 0.0
2018-Jul-12 21:00N 30°06' W 093°19'0 0.0
2018-Jul-12 20:30N 30°06' W 093°19'0 0.0
2018-Jul-12 20:00N 30°06' W 093°19'0 0.0
2018-Jul-12 19:30N 30°06' W 093°19'0 0.0
2018-Jul-12 18:58N 30°06' W 093°19'0 0.0
2018-Jul-12 18:30N 30°06' W 093°19'0 0.0
2018-Jul-12 18:00N 30°06' W 093°19'0 0.0
2018-Jul-12 17:27N 30°06' W 093°19'0 0.0
2018-Jul-12 17:00N 30°06' W 093°19'0 0.0
2018-Jul-12 16:29N 30°06' W 093°19'0 0.0
2018-Jul-12 16:00N 30°06' W 093°19'0 0.0
2018-Jul-12 15:30N 30°06' W 093°19'0 0.0
2018-Jul-12 15:00N 30°06' W 093°19'0 0.0
2018-Jul-12 14:30N 30°06' W 093°19'0 0.0
2018-Jul-12 13:59N 30°06' W 093°19'0 0.0
2018-Jul-12 13:30N 30°06' W 093°19'0 0.0
2018-Jul-12 13:00N 30°06' W 093°19'0 0.0
2018-Jul-12 12:30N 30°06' W 093°19'0 0.0
2018-Jul-12 12:00N 30°06' W 093°19'0 0.0
2018-Jul-12 11:29N 30°06' W 093°19'0 0.0
2018-Jul-12 11:00N 30°06' W 093°19'0 0.0
2018-Jul-12 10:30N 30°06' W 093°19'0 0.0
2018-Jul-12 10:00N 30°06' W 093°19'0 0.0
2018-Jul-12 09:30N 30°06' W 093°19'0 0.0
2018-Jul-12 09:00N 30°06' W 093°19'0 0.0
2018-Jul-12 08:29N 30°06' W 093°19'0 0.0
2018-Jul-12 08:00N 30°06' W 093°19'0 0.0
2018-Jul-12 07:30N 30°06' W 093°19'0 0.0
2018-Jul-12 06:59N 30°06' W 093°19'0 0.0
2018-Jul-12 06:30N 30°06' W 093°19'0 0.0
2018-Jul-12 05:59N 30°06' W 093°19'0 0.0
2018-Jul-12 05:30N 30°06' W 093°19'0 0.0
2018-Jul-12 05:00N 30°06' W 093°19'0 0.0
2018-Jul-12 04:30N 30°06' W 093°19'0 0.0
2018-Jul-12 04:00N 30°06' W 093°19'0 0.0
2018-Jul-12 03:30N 30°06' W 093°19'0 0.0
2018-Jul-12 03:00N 30°06' W 093°19'0 0.0
2018-Jul-12 02:30N 30°06' W 093°19'0 0.0
2018-Jul-12 02:00N 30°06' W 093°19'0 0.0
2018-Jul-12 01:30N 30°06' W 093°19'0 0.0
2018-Jul-12 01:00N 30°06' W 093°19'0 0.0
2018-Jul-12 00:29N 30°06' W 093°19'0 0.0
2018-Jul-12 00:00N 30°06' W 093°19'0 0.0
2018-Jul-11 23:30N 30°06' W 093°19'0 0.0
2018-Jul-11 22:59N 30°06' W 093°19'0 0.0
2018-Jul-11 22:30N 30°06' W 093°19'0 0.0
2018-Jul-11 22:00N 30°06' W 093°19'0 0.0
2018-Jul-11 21:30N 30°06' W 093°19'0 0.0
2018-Jul-11 21:00N 30°06' W 093°19'0 0.0
2018-Jul-11 20:29N 30°06' W 093°19'0 0.0
2018-Jul-11 20:00N 30°06' W 093°19'0 0.0
2018-Jul-11 19:30N 30°06' W 093°19'0 0.0
2018-Jul-11 19:00N 30°06' W 093°19'0 0.0
2018-Jul-11 18:30N 30°06' W 093°19'0 0.0
2018-Jul-11 18:00N 30°06' W 093°19'0 0.0
2018-Jul-11 17:30N 30°06' W 093°19'0 0.0
2018-Jul-11 17:00N 30°06' W 093°19'0 0.0
2018-Jul-11 16:30N 30°06' W 093°19'0 0.0
2018-Jul-11 16:00N 30°06' W 093°19'0 0.0
2018-Jul-11 15:30N 30°06' W 093°19'0 0.0
2018-Jul-11 15:00N 30°06' W 093°19'0 0.0
2018-Jul-11 14:30N 30°06' W 093°19'0 0.0
2018-Jul-11 14:00N 30°06' W 093°19'0 0.0
2018-Jul-11 13:30N 30°06' W 093°19'0 0.0
2018-Jul-11 13:00N 30°06' W 093°19'0 0.0
2018-Jul-11 12:30N 30°06' W 093°19'0 0.0
2018-Jul-11 12:00N 30°06' W 093°19'0 0.0
2018-Jul-11 11:30N 30°06' W 093°19'0 0.0
2018-Jul-11 11:00N 30°06' W 093°19'0 0.0
2018-Jul-11 10:30N 30°06' W 093°19'0 0.0
2018-Jul-11 10:00N 30°06' W 093°19'0 0.3
2018-Jul-11 09:30N 30°06' W 093°19'1 1.3
2018-Jul-11 09:00N 30°06' W 093°20'0 0.1
2018-Jul-11 08:31N 30°06' W 093°20'0 0.2
2018-Jul-11 08:00N 30°06' W 093°20'0 0.1
2018-Jul-11 07:30N 30°06' W 093°20'0 0.1
2018-Jul-11 06:59N 30°06' W 093°20'0 0.0
2018-Jul-11 06:30N 30°06' W 093°20'0 0.0
2018-Jul-11 06:00N 30°06' W 093°20'0 0.0
2018-Jul-11 05:30N 30°06' W 093°20'0 0.0
2018-Jul-11 05:00N 30°06' W 093°20'0 0.1
2018-Jul-11 04:30N 30°06' W 093°20'0 0.0
2018-Jul-11 04:00N 30°06' W 093°20'0 0.1
2018-Jul-11 03:30N 30°06' W 093°20'1 1.3
2018-Jul-11 03:00N 30°05' W 093°20'2 3.3
2018-Jul-11 02:30N 30°04' W 093°21'0 0.0
2018-Jul-11 02:00N 30°04' W 093°21'0 0.2
2018-Jul-11 01:30N 30°04' W 093°21'2 5.0
2018-Jul-11 01:00N 30°03' W 093°18'1 1.7
2018-Jul-11 00:30N 30°04' W 093°18'1 1.7
2018-Jul-11 00:00N 30°05' W 093°18'1 1.7
2018-Jul-10 23:30N 30°06' W 093°18'1 1.0
2018-Jul-10 23:00N 30°06' W 093°18'1 0.1
2018-Jul-10 15:26N 30°06' W 093°17'0 0.1
2018-Jul-10 15:00N 30°06' W 093°17'0 0.0
2018-Jul-10 14:30N 30°06' W 093°17'0 0.0
2018-Jul-10 14:00N 30°06' W 093°17'0 0.0
2018-Jul-10 13:30N 30°06' W 093°17'0 0.0
2018-Jul-10 13:00N 30°06' W 093°17'0 0.0
2018-Jul-10 12:30N 30°06' W 093°17'0 0.0
2018-Jul-10 12:00N 30°06' W 093°17'0 0.0
2018-Jul-10 11:30N 30°06' W 093°17'0 0.0
2018-Jul-10 11:00N 30°06' W 093°17'0 0.0
2018-Jul-10 10:30N 30°06' W 093°17'0 0.0
2018-Jul-10 10:00N 30°06' W 093°17'0 0.0
2018-Jul-10 09:30N 30°06' W 093°17'0 0.0
2018-Jul-10 09:00N 30°06' W 093°17'0 0.0
2018-Jul-10 08:30N 30°06' W 093°17'0 0.0
2018-Jul-10 08:00N 30°06' W 093°17'0 0.0
2018-Jul-10 07:30N 30°06' W 093°17'0 0.0
2018-Jul-10 07:00N 30°06' W 093°17'0 0.0
2018-Jul-10 06:30N 30°06' W 093°17'0 0.0
2018-Jul-10 06:00N 30°06' W 093°17'0 0.0
2018-Jul-10 05:30N 30°06' W 093°17'0 0.0
2018-Jul-10 05:00N 30°06' W 093°17'0 0.0
2018-Jul-10 04:30N 30°06' W 093°17'0 0.0
2018-Jul-10 04:00N 30°06' W 093°17'0 0.0
2018-Jul-10 03:30N 30°06' W 093°17'0 0.0
2018-Jul-10 03:00N 30°06' W 093°17'0 0.0
2018-Jul-10 02:30N 30°06' W 093°17'0 0.0
2018-Jul-10 02:00N 30°06' W 093°17'0 0.0
2018-Jul-10 01:30N 30°06' W 093°17'0 0.0
2018-Jul-10 01:00N 30°06' W 093°17'0 0.0
2018-Jul-10 00:30N 30°06' W 093°17'0 0.0
2018-Jul-10 00:00N 30°06' W 093°17'0 0.0
2018-Jul-09 23:30N 30°06' W 093°17'0 0.0
2018-Jul-09 23:00N 30°06' W 093°17'0 0.0
2018-Jul-09 22:30N 30°06' W 093°17'0 0.0
2018-Jul-09 22:00N 30°06' W 093°17'0 0.0
2018-Jul-09 21:30N 30°06' W 093°17'0 0.0
2018-Jul-09 21:00N 30°06' W 093°17'0 0.0
2018-Jul-09 20:30N 30°06' W 093°17'0 0.0
2018-Jul-09 20:00N 30°06' W 093°17'0 0.0
2018-Jul-09 19:30N 30°06' W 093°17'1 1.4
2018-Jul-09 19:00N 30°07' W 093°18'1 1.5
2018-Jul-09 18:31N 30°06' W 093°19'0 0.1
2018-Jul-09 18:00N 30°06' W 093°19'0 0.1
2018-Jul-09 17:30N 30°06' W 093°19'0 0.0
2018-Jul-09 17:00N 30°06' W 093°19'0 0.0
2018-Jul-09 16:30N 30°06' W 093°19'0 0.0
2018-Jul-09 16:00N 30°06' W 093°19'0 0.0
2018-Jul-09 15:30N 30°06' W 093°19'0 0.0
2018-Jul-09 15:00N 30°06' W 093°19'0 0.1
2018-Jul-09 14:30N 30°06' W 093°19'0 0.1
2018-Jul-09 13:59N 30°06' W 093°19'0 0.0
2018-Jul-09 13:30N 30°06' W 093°19'0 0.1
2018-Jul-09 13:00N 30°06' W 093°19'0 0.0
2018-Jul-09 12:30N 30°06' W 093°19'0 0.0
2018-Jul-09 12:00N 30°06' W 093°19'0 0.1
2018-Jul-09 11:29N 30°06' W 093°19'0 1.0
2018-Jul-09 11:00N 30°06' W 093°18'1 1.0
2018-Jul-09 10:30N 30°05' W 093°18'0 0.9
2018-Jul-09 10:00N 30°05' W 093°17'1 1.0
2018-Jul-09 09:30N 30°05' W 093°17'1 2.3
2018-Jul-09 09:00N 30°04' W 093°16'0 0.0
2018-Jul-09 08:30N 30°04' W 093°16'0 0.0
2018-Jul-09 08:00N 30°04' W 093°16'0 0.0
2018-Jul-09 07:28N 30°04' W 093°16'0 0.0
2018-Jul-09 07:01N 30°04' W 093°16'0 0.0
2018-Jul-09 06:30N 30°04' W 093°16'0 0.1
2018-Jul-09 06:00N 30°04' W 093°16'0 0.5
2018-Jul-09 05:30N 30°04' W 093°16'1 2.0
2018-Jul-09 05:00N 30°03' W 093°16'1 2.0
2018-Jul-09 04:30N 30°02' W 093°15'1 2.0
2018-Jul-09 04:00N 30°01' W 093°14'1 2.3
2018-Jul-09 03:30N 30°00' W 093°14'1 1.2
2018-Jul-09 03:00N 29°60' W 093°13'0 0.1
2018-Jul-09 02:30N 29°60' W 093°13'0 0.2
2018-Jul-09 02:00N 29°60' W 093°13'0 0.0
2018-Jul-09 01:30N 29°60' W 093°13'0 0.0
2018-Jul-09 01:00N 29°60' W 093°13'0 0.0
2018-Jul-09 00:30N 29°60' W 093°13'0 0.0
2018-Jul-09 00:00N 29°60' W 093°13'0 0.0
2018-Jul-08 23:30N 29°60' W 093°13'0 0.0
2018-Jul-08 23:00N 29°60' W 093°13'0 0.0
2018-Jul-08 22:30N 29°60' W 093°13'0 0.0
2018-Jul-08 22:00N 29°60' W 093°13'0 0.0
2018-Jul-08 21:30N 29°60' W 093°13'0 0.0
2018-Jul-08 21:00N 29°60' W 093°13'0 0.3
2018-Jul-08 20:30N 29°60' W 093°13'0 0.0
2018-Jul-08 20:00N 29°60' W 093°13'0 0.1
2018-Jul-08 19:30N 29°60' W 093°13'0 0.0
2018-Jul-08 19:00N 29°60' W 093°13'0 0.0
2018-Jul-08 18:30N 29°60' W 093°13'0 0.0
2018-Jul-08 18:00N 29°60' W 093°13'0 0.2
2018-Jul-08 17:30N 29°60' W 093°13'0 0.5
2018-Jul-08 16:59N 29°59' W 093°13'1 1.8
2018-Jul-08 16:30N 29°59' W 093°12'2 3.1
2018-Jul-08 16:00N 29°58' W 093°11'1 1.7
2018-Jul-08 15:30N 29°57' W 093°10'0 0.1
2018-Jul-08 15:00N 29°57' W 093°10'0 0.8
2018-Jul-08 14:30N 29°57' W 093°10'0 0.0
2018-Jul-08 14:00N 29°57' W 093°10'0 0.0
2018-Jul-08 13:30N 29°57' W 093°10'0 0.0
2018-Jul-08 13:00N 29°57' W 093°10'0 0.1
2018-Jul-08 12:30N 29°57' W 093°10'0 0.0
2018-Jul-08 12:00N 29°57' W 093°10'0 0.0
2018-Jul-08 11:30N 29°57' W 093°10'0 0.0
2018-Jul-08 10:59N 29°57' W 093°10'0 0.0
2018-Jul-08 10:30N 29°57' W 093°10'0 0.0
2018-Jul-08 10:00N 29°57' W 093°10'0 0.0
2018-Jul-08 09:30N 29°57' W 093°10'0 0.0
2018-Jul-08 09:00N 29°57' W 093°10'0 0.0
2018-Jul-08 08:27N 29°57' W 093°10'0 0.0
2018-Jul-08 08:00N 29°57' W 093°10'0 0.0
2018-Jul-08 07:30N 29°57' W 093°10'0 0.0
2018-Jul-08 06:57N 29°57' W 093°10'0 0.1
2018-Jul-08 06:30N 29°57' W 093°10'0 0.0
2018-Jul-08 05:55N 29°57' W 093°10'0 0.0
2018-Jul-08 05:30N 29°57' W 093°10'0 0.3
2018-Jul-08 05:00N 29°56' W 093°10'0 1.0
2018-Jul-08 04:30N 29°56' W 093°09'2 3.0
2018-Jul-08 04:00N 29°56' W 093°08'1 1.2
2018-Jul-08 03:30N 29°56' W 093°07'2 3.0
2018-Jul-08 03:00N 29°56' W 093°05'1 2.5
2018-Jul-08 02:30N 29°56' W 093°04'0 0.0
2018-Jul-08 01:59N 29°56' W 093°04'0 0.0
2018-Jul-08 01:22N 29°56' W 093°04'0 0.0
2018-Jul-08 01:00N 29°56' W 093°04'0 0.0
2018-Jul-08 00:30N 29°56' W 093°04'0 0.0
2018-Jul-08 00:00N 29°56' W 093°04'0 0.0
2018-Jul-07 23:30N 29°56' W 093°04'0 0.0
2018-Jul-07 23:00N 29°56' W 093°04'0 0.0
2018-Jul-07 22:30N 29°56' W 093°04'0 0.0
2018-Jul-07 22:00N 29°56' W 093°04'0 0.0
2018-Jul-07 21:30N 29°56' W 093°04'0 0.0
2018-Jul-07 21:00N 29°56' W 093°04'0 0.0
2018-Jul-07 20:30N 29°56' W 093°04'0 0.0
2018-Jul-07 20:00N 29°56' W 093°04'0 0.0
2018-Jul-07 19:30N 29°56' W 093°04'0 0.0
2018-Jul-07 19:00N 29°56' W 093°04'0 0.0
2018-Jul-07 18:30N 29°56' W 093°04'0 0.0
2018-Jul-07 18:00N 29°56' W 093°04'0 0.0
2018-Jul-07 17:30N 29°56' W 093°04'0 0.0
2018-Jul-07 17:00N 29°56' W 093°04'0 0.1
2018-Jul-07 16:30N 29°56' W 093°04'1 2.2
2018-Jul-07 15:55N 29°56' W 093°02'2 0.5
2018-Jul-07 12:49N 29°56' W 093°00'0 0.0
2018-Jul-07 12:12N 29°56' W 093°00'0 0.0
2018-Jul-07 11:56N 29°56' W 093°00'0 0.0
2018-Jul-07 09:48N 29°56' W 093°00'0 0.0
2018-Jul-07 09:10N 29°56' W 093°00'0 0.0
2018-Jul-07 09:00N 29°56' W 093°00'0 0.2
2018-Jul-07 08:24N 29°56' W 093°00'0 0.0
2018-Jul-07 07:51N 29°56' W 093°00'0 0.0
2018-Jul-07 07:12N 29°56' W 093°00'0 0.0
2018-Jul-07 05:18N 29°56' W 093°00'0 0.0
2018-Jul-07 05:00N 29°56' W 093°00'0 0.0
2018-Jul-07 03:44N 29°56' W 093°00'0 0.0
2018-Jul-07 03:17N 29°56' W 093°00'0 0.1
2018-Jul-07 02:56N 29°56' W 093°00'0 0.0
2018-Jul-07 02:29N 29°56' W 093°00'7 0.4
2018-Jul-06 10:09N 29°57' W 092°52'0 0.2
2018-Jul-06 09:59N 29°57' W 092°52'0 0.3
2018-Jul-06 09:28N 29°57' W 092°52'1 2.1
2018-Jul-06 08:56N 29°58' W 092°51'  

Dump ship's entire track history